createdAt,value
2023-02-04T09:27:56.259Z,98266.72
2023-02-04T09:28:57.701Z,98271.69
2023-02-04T09:29:59.054Z,98277.84
2023-02-04T09:34:36.783Z,98281.72
2023-02-04T09:35:38.619Z,98288.63
2023-02-04T09:36:40.065Z,98289.25
2023-02-04T09:37:41.465Z,98287.09
2023-02-04T09:41:46.335Z,98297.00
2023-02-04T09:42:50.342Z,98309.88
2023-02-04T09:43:52.040Z,98300.88
2023-02-04T09:44:53.753Z,98296.44
2023-02-04T09:48:37.944Z,98302.50
2023-02-04T09:49:39.455Z,98312.78
2023-02-04T09:50:41.736Z,98314.97
2023-02-04T09:55:36.051Z,98306.84
2023-02-04T10:29:16.437Z,98307.88
2023-02-04T10:30:27.167Z,98299.56
2023-02-04T10:31:39.574Z,98302.03
2023-02-04T10:32:41.133Z,98290.50
2023-02-04T10:33:42.530Z,98297.91
2023-02-04T10:34:43.880Z,98299.31
2023-02-04T10:40:29.189Z,98288.13
2023-02-04T10:41:30.662Z,98294.56
2023-02-04T10:42:32.331Z,98283.91
2023-02-04T10:43:33.765Z,98294.53
2023-02-04T10:44:40.287Z,98275.44
2023-02-04T10:45:47.074Z,98290.31
2023-02-04T10:46:48.612Z,98295.59
2023-02-04T10:47:52.510Z,98293.97
2023-02-04T10:48:53.885Z,98288.00
2023-02-04T10:50:14.833Z,98302.41
2023-02-04T10:51:16.232Z,98303.16
2023-02-04T10:52:20.193Z,98294.81
2023-02-04T10:53:42.001Z,98304.94
2023-02-04T10:54:43.639Z,98285.44
2023-02-04T10:55:47.065Z,98295.84
2023-02-04T10:56:48.439Z,98295.34
2023-02-04T10:57:52.513Z,98302.91
2023-02-04T10:58:54.095Z,98294.97
2023-02-04T11:00:01.490Z,98302.97
2023-02-04T11:01:03.049Z,98296.13
2023-02-04T11:02:16.527Z,98302.75
2023-02-04T11:03:28.242Z,98304.78
2023-02-04T11:04:29.764Z,98303.53
2023-02-04T11:05:33.330Z,98299.03
2023-02-04T11:06:34.748Z,98299.78
2023-02-04T11:07:36.212Z,98303.84
2023-02-04T11:08:38.849Z,98303.38
2023-02-04T11:09:43.738Z,98299.56
2023-02-04T11:52:38.924Z,98296.28
2023-02-04T11:53:40.642Z,98298.66
2023-02-04T11:54:42.043Z,98303.19
2023-02-04T11:55:47.597Z,98285.28
2023-02-04T11:56:52.897Z,98285.16
2023-02-04T11:57:55.910Z,98290.88
2023-02-04T11:58:58.485Z,98296.03
2023-02-04T12:00:00.119Z,98293.16
2023-02-04T12:01:01.553Z,98293.28
2023-02-04T12:02:15.079Z,98277.75
2023-02-04T12:03:31.695Z,98291.59
2023-02-04T12:04:33.164Z,98293.25
2023-02-04T12:55:05.196Z,98289.47
2023-02-04T12:56:06.653Z,98299.41
2023-02-04T12:57:07.996Z,98317.72
2023-02-04T12:58:09.440Z,98306.94
2023-02-04T12:59:10.816Z,98309.03
2023-02-04T13:00:14.211Z,98310.56
2023-02-04T13:01:15.710Z,98302.75
2023-02-04T13:02:17.379Z,98301.31
2023-02-04T13:03:19.080Z,98310.56
2023-02-04T13:04:20.542Z,98307.94
2023-02-04T13:05:22.412Z,98301.25
2023-02-04T13:06:23.783Z,98305.66
2023-02-04T13:07:25.276Z,98321.34
2023-02-04T13:08:26.663Z,98320.97
2023-02-04T13:09:28.081Z,98315.25
2023-02-04T13:10:29.423Z,98316.91
2023-02-04T13:11:30.766Z,98310.41
2023-02-04T13:12:32.161Z,98319.09
2023-02-04T13:13:33.556Z,98298.81
2023-02-04T13:14:35.134Z,98320.09
2023-02-04T13:15:36.570Z,98303.81
2023-02-04T13:16:37.941Z,98310.13
2023-02-04T13:17:39.286Z,98309.91
2023-02-04T13:18:40.735Z,98321.66
2023-02-04T13:19:42.203Z,98306.06
2023-02-04T13:20:43.739Z,98312.91
2023-02-04T13:21:45.118Z,98312.91
2023-02-04T13:22:46.535Z,98314.63
2023-02-04T13:23:47.896Z,98313.25
2023-02-04T13:24:49.291Z,98310.03
2023-02-04T13:25:50.716Z,98313.59
2023-02-04T13:26:52.164Z,98314.31
2023-02-04T13:27:53.894Z,98310.16
2023-02-04T13:39:45.814Z,98303.78
2023-02-04T13:40:47.206Z,98291.41
2023-02-04T13:41:48.589Z,98314.47
2023-02-04T13:42:50.008Z,98302.53
2023-02-04T13:47:44.515Z,98319.63
2023-02-04T13:48:45.953Z,98326.75
2023-02-04T13:49:47.908Z,98322.00
2023-02-04T13:50:50.764Z,98296.25
2023-02-04T13:51:52.105Z,98307.47
2023-02-04T13:52:55.270Z,98328.09
2023-02-04T13:53:56.892Z,98331.19
2023-02-04T13:54:58.306Z,98323.97
2023-02-04T13:55:59.895Z,98336.72
2023-02-04T13:57:01.475Z,98332.06
2023-02-04T13:58:02.855Z,98331.00
2023-02-04T13:59:04.257Z,98325.13
2023-02-04T14:00:07.217Z,98322.59
2023-02-04T14:02:56.598Z,98329.50
2023-02-04T14:03:57.957Z,98328.22
2023-02-04T14:04:59.782Z,98331.19
2023-02-04T14:06:01.165Z,98330.88
2023-02-04T14:07:02.607Z,98319.84
2023-02-04T14:08:04.086Z,98326.63
2023-02-04T14:09:05.531Z,98329.97
2023-02-04T14:10:08.035Z,98331.06
2023-02-04T14:11:09.752Z,98307.78
2023-02-04T14:12:11.206Z,98320.78
2023-02-04T14:13:12.622Z,98330.19
2023-02-04T14:14:14.307Z,98329.97
2023-02-04T14:15:15.799Z,98325.13
2023-02-04T14:16:17.240Z,98326.16
2023-02-04T14:17:18.616Z,98318.94
2023-02-04T14:18:20.854Z,98328.66
2023-02-04T14:19:24.150Z,98324.84
2023-02-04T14:20:25.543Z,98314.00
2023-02-04T14:21:27.206Z,98324.25
2023-02-04T14:22:28.623Z,98315.66
2023-02-04T14:23:30.071Z,98326.94
2023-02-04T14:24:32.235Z,98327.91
2023-02-04T14:25:33.721Z,98323.19
2023-02-04T14:26:35.079Z,98333.47
2023-02-04T14:27:38.356Z,98322.25
2023-02-04T14:28:39.804Z,98304.19
2023-02-04T14:29:41.243Z,98334.06
2023-02-04T14:30:42.987Z,98324.78
2023-02-04T14:31:44.671Z,98325.09
2023-02-04T14:32:46.418Z,98334.25
2023-02-04T14:33:50.138Z,98322.13
2023-02-04T14:34:51.647Z,98323.88
2023-02-04T14:35:53.059Z,98332.59
2023-02-04T14:36:54.468Z,98329.97
2023-02-04T14:37:55.984Z,98336.94
2023-02-04T14:38:57.543Z,98336.50
2023-02-04T14:39:58.897Z,98335.81
2023-02-04T14:41:00.785Z,98335.59
2023-02-04T14:42:04.456Z,98334.97
2023-02-04T14:43:07.239Z,98339.94
2023-02-04T14:44:08.652Z,98343.53
2023-02-04T14:45:12.229Z,98342.13
2023-02-04T14:46:13.693Z,98324.56
2023-02-04T14:47:15.073Z,98327.66
2023-02-04T14:48:16.558Z,98337.91
2023-02-04T14:49:17.971Z,98343.06
2023-02-04T14:50:19.427Z,98347.75
2023-02-04T14:51:20.822Z,98345.28
2023-02-04T14:52:22.775Z,98348.25
2023-02-04T14:53:24.253Z,98344.84
2023-02-04T14:54:25.702Z,98341.72
2023-02-04T14:55:27.608Z,98350.25
2023-02-04T14:56:28.978Z,98343.50
2023-02-04T14:57:30.354Z,98354.25
2023-02-04T14:58:31.683Z,98356.88
2023-02-04T14:59:33.047Z,98345.66
2023-02-04T15:00:34.880Z,98352.72
2023-02-04T15:01:36.548Z,98357.06
2023-02-04T15:02:39.121Z,98338.16
2023-02-04T15:03:40.632Z,98356.47
2023-02-04T15:04:43.621Z,98362.66
2023-02-04T15:05:45.144Z,98365.16
2023-02-04T15:06:46.753Z,98360.06
2023-02-04T15:07:48.135Z,98361.78
2023-02-04T15:08:49.568Z,98353.28
